createdAt,value
2022-11-28T00:00:16.332Z,94262.84
2022-11-28T00:01:22.586Z,94268.56
2022-11-28T00:02:19.260Z,94257.84
2022-11-28T00:03:16.205Z,94267.25
2022-11-28T00:04:14.085Z,94228.44
2022-11-28T00:05:12.156Z,94259.22
2022-11-28T00:06:09.309Z,94254.94
2022-11-28T00:07:06.399Z,94228.50
2022-11-28T00:08:03.212Z,94269.56
2022-11-28T00:08:59.998Z,94266.25
2022-11-28T00:09:56.683Z,94266.25
2022-11-28T00:10:53.387Z,94270.41
2022-11-28T00:11:50.612Z,94270.06
2022-11-28T00:12:47.229Z,94218.22
2022-11-28T00:13:44.603Z,94250.91
2022-11-28T00:14:41.571Z,94269.78
2022-11-28T00:15:38.468Z,94213.56
2022-11-28T00:16:36.102Z,94269.44
2022-11-28T00:17:32.851Z,94271.94
2022-11-28T00:18:29.627Z,94264.22
2022-11-28T00:19:26.403Z,94271.69
2022-11-28T00:20:23.168Z,94267.69
2022-11-28T00:21:20.568Z,94266.16
2022-11-28T00:22:17.195Z,94268.09
2022-11-28T00:23:13.835Z,94194.28
2022-11-28T00:24:10.483Z,94268.53
2022-11-28T00:25:07.939Z,94235.59
2022-11-28T00:26:09.042Z,94263.69
2022-11-28T00:27:05.668Z,94263.69
2022-11-28T00:28:02.684Z,94260.22
2022-11-28T00:29:00.624Z,94264.63
2022-11-28T00:29:57.405Z,94257.06
2022-11-28T00:30:54.053Z,94253.59
2022-11-28T00:31:50.771Z,94162.88
2022-11-28T00:32:47.394Z,94256.88
2022-11-28T00:33:44.023Z,94258.59
2022-11-28T00:34:40.921Z,94261.69
2022-11-28T00:35:37.662Z,94258.72
2022-11-28T00:36:34.281Z,94264.78
2022-11-28T00:37:30.944Z,94261.78
2022-11-28T00:38:28.621Z,94262.47
2022-11-28T00:39:25.275Z,94255.53
2022-11-28T00:40:22.281Z,94198.41
2022-11-28T00:41:22.239Z,94257.22
2022-11-28T00:42:22.236Z,94259.59
2022-11-28T00:43:19.055Z,94261.47
2022-11-28T00:44:15.832Z,94214.63
2022-11-28T00:45:12.531Z,94259.00
2022-11-28T00:46:09.907Z,94276.38
2022-11-28T00:47:06.594Z,94262.88
2022-11-28T00:48:03.431Z,94265.09
2022-11-28T00:49:00.130Z,94246.75
2022-11-28T00:49:56.824Z,94252.47
2022-11-28T00:51:15.014Z,94264.41
2022-11-28T00:52:11.583Z,94240.19
2022-11-28T00:53:08.192Z,94220.41
2022-11-28T00:54:06.445Z,94238.78
2022-11-28T00:55:03.126Z,94251.34
2022-11-28T00:55:59.835Z,94206.50
2022-11-28T00:56:56.509Z,94249.06
2022-11-28T00:57:55.250Z,94250.97
2022-11-28T00:58:52.722Z,94250.75
2022-11-28T00:59:49.403Z,94207.03
2022-11-28T01:00:46.155Z,94245.16
2022-11-28T01:01:44.406Z,94248.66
2022-11-28T01:02:41.056Z,94212.72
2022-11-28T01:03:39.074Z,94247.47
2022-11-28T01:04:35.796Z,94252.72
2022-11-28T01:05:32.396Z,94242.38
2022-11-28T01:06:32.705Z,94204.19
2022-11-28T01:07:29.423Z,94249.22
2022-11-28T01:08:26.130Z,94253.03
2022-11-28T01:09:23.914Z,94255.03
2022-11-28T01:10:20.688Z,94246.22
2022-11-28T01:11:17.682Z,94253.31
2022-11-28T01:12:14.328Z,94256.19
2022-11-28T01:13:11.804Z,94259.56
2022-11-28T01:14:10.036Z,94252.59
2022-11-28T01:15:10.461Z,94251.53
2022-11-28T01:16:08.638Z,94251.25
2022-11-28T01:17:05.556Z,94156.03
2022-11-28T01:18:02.761Z,94248.00
2022-11-28T01:18:59.442Z,94254.94
2022-11-28T01:19:56.194Z,94250.94
2022-11-28T01:20:52.842Z,94237.47
2022-11-28T01:21:49.691Z,94245.72
2022-11-28T01:22:46.508Z,94249.22
2022-11-28T01:23:43.259Z,94198.81
2022-11-28T01:24:40.010Z,94244.63
2022-11-28T01:25:36.896Z,94240.41
2022-11-28T01:26:33.951Z,94237.84
2022-11-28T01:27:30.534Z,94164.75
2022-11-28T01:28:27.108Z,94245.44
2022-11-28T01:29:23.844Z,94238.50
2022-11-28T01:30:20.549Z,94242.34
2022-11-28T01:31:20.696Z,94238.00
2022-11-28T01:32:17.418Z,94239.06
2022-11-28T01:33:14.062Z,94250.09
2022-11-28T01:34:10.788Z,94243.03
2022-11-28T01:35:07.847Z,94239.59
2022-11-28T01:36:04.857Z,94220.63
2022-11-28T01:37:01.494Z,94235.34
2022-11-28T01:37:58.231Z,94243.28
2022-11-28T01:38:54.882Z,94244.81
2022-11-28T01:39:51.523Z,94235.16
2022-11-28T01:40:48.134Z,94231.44
2022-11-28T01:41:44.767Z,94233.16
2022-11-28T01:42:41.426Z,94213.09
2022-11-28T01:43:56.567Z,94188.81
2022-11-28T01:44:53.158Z,94219.88
2022-11-28T01:45:50.346Z,94211.81
2022-11-28T01:46:47.048Z,94198.53
2022-11-28T01:47:44.921Z,94232.84
2022-11-28T01:48:42.602Z,94225.84
2022-11-28T01:49:39.467Z,94221.47
2022-11-28T01:50:37.618Z,94199.00
2022-11-28T01:51:36.014Z,94223.50
2022-11-28T01:52:33.949Z,94222.41
2022-11-28T01:53:32.953Z,94226.22
2022-11-28T01:54:31.335Z,94225.69
2022-11-28T01:55:33.664Z,94217.75
2022-11-28T01:56:38.432Z,94221.22
2022-11-28T01:57:35.232Z,94223.19
2022-11-28T01:58:34.998Z,94204.69
2022-11-28T01:59:37.459Z,94211.75
2022-11-28T02:00:34.958Z,94224.22
2022-11-28T02:01:31.875Z,94215.19
2022-11-28T02:02:52.252Z,94222.84
2022-11-28T02:03:50.488Z,94223.72
2022-11-28T02:04:48.559Z,94219.78
2022-11-28T02:05:45.768Z,94191.25
2022-11-28T02:06:43.440Z,94225.50
2022-11-28T02:07:40.369Z,94190.38
2022-11-28T02:08:37.541Z,94228.09
2022-11-28T02:09:34.199Z,94219.88
2022-11-28T02:10:47.356Z,94220.50
2022-11-28T02:12:01.734Z,94219.03
2022-11-28T02:13:07.022Z,94222.41
2022-11-28T02:14:18.690Z,94210.47
2022-11-28T02:15:20.855Z,94215.50
2022-11-28T02:16:32.556Z,94211.38
2022-11-28T02:17:41.155Z,94207.53
2022-11-28T02:18:50.589Z,94219.13
2022-11-28T02:20:17.354Z,94207.50
2022-11-28T02:21:18.533Z,94206.59
2022-11-28T02:22:48.390Z,94205.75
2022-11-28T02:24:02.034Z,94191.25
2022-11-28T02:25:10.904Z,94208.22
2022-11-28T02:26:45.258Z,94204.56
2022-11-28T02:27:44.844Z,94197.72
2022-11-28T02:28:47.427Z,94209.84
2022-11-28T02:29:51.471Z,94200.59
2022-11-28T02:31:15.899Z,94198.03
2022-11-28T02:32:21.389Z,94210.16
2022-11-28T02:33:32.841Z,94147.78
2022-11-28T02:34:47.632Z,94200.78
2022-11-28T02:36:03.814Z,94199.91
2022-11-28T02:37:09.902Z,94172.41
2022-11-28T02:39:00.693Z,94208.50
2022-11-28T02:40:21.404Z,94198.13
2022-11-28T02:41:27.011Z,94202.44
2022-11-28T02:42:33.866Z,94203.72
2022-11-28T02:43:43.325Z,94206.34
2022-11-28T02:44:50.183Z,94167.94
2022-11-28T02:45:52.590Z,94204.03
2022-11-28T02:46:56.436Z,94205.84
2022-11-28T02:48:03.448Z,94207.81
2022-11-28T02:49:08.334Z,94202.03
2022-11-28T02:50:22.451Z,94211.81
2022-11-28T02:51:27.323Z,94200.59
2022-11-28T02:52:29.015Z,94201.22
2022-11-28T02:53:29.064Z,94186.34
2022-11-28T02:54:27.426Z,94203.50
2022-11-28T02:55:24.915Z,94118.13
2022-11-28T02:56:24.158Z,94196.53
2022-11-28T02:57:20.829Z,94171.88
2022-11-28T02:58:18.672Z,94198.66
2022-11-28T02:59:45.971Z,94205.75
2022-11-28T03:00:44.851Z,94143.13
2022-11-28T03:01:42.410Z,94209.72
2022-11-28T03:02:39.647Z,94203.09
2022-11-28T03:04:12.851Z,94201.38
2022-11-28T03:05:26.746Z,94203.91
2022-11-28T03:06:26.396Z,94201.00
2022-11-28T03:08:00.846Z,94207.72
2022-11-28T03:09:23.239Z,94201.97
2022-11-28T03:10:35.769Z,94204.69
2022-11-28T03:12:01.250Z,94200.69
2022-11-28T03:13:26.845Z,94202.75
2022-11-28T03:14:26.244Z,94208.97
2022-11-28T03:15:35.213Z,94161.38
2022-11-28T03:16:45.361Z,94201.13
2022-11-28T03:17:53.898Z,94199.97
2022-11-28T03:19:27.818Z,94207.81
2022-11-28T03:20:33.783Z,94197.97
2022-11-28T03:21:45.393Z,94197.41
2022-11-28T03:23:05.624Z,94197.63
2022-11-28T03:24:10.612Z,94195.13
2022-11-28T03:25:25.243Z,94200.91
2022-11-28T03:26:47.165Z,94135.41
2022-11-28T03:27:53.852Z,94198.47
2022-11-28T03:29:03.198Z,94200.69
2022-11-28T03:30:11.626Z,94198.72
2022-11-28T03:31:14.152Z,94199.56
2022-11-28T03:32:16.179Z,94200.16
2022-11-28T03:33:16.382Z,94160.72
2022-11-28T03:34:17.437Z,94197.22
2022-11-28T03:35:19.472Z,94204.94
2022-11-28T03:36:24.474Z,94204.13
2022-11-28T03:37:27.588Z,94189.03
2022-11-28T03:38:37.284Z,94203.50
2022-11-28T03:39:38.970Z,94199.63
2022-11-28T03:40:47.529Z,94208.22
2022-11-28T03:42:02.387Z,94198.72
2022-11-28T03:43:04.096Z,94205.56
2022-11-28T03:44:03.923Z,94199.94
2022-11-28T03:45:16.231Z,94204.13
2022-11-28T03:46:18.399Z,94196.09
2022-11-28T03:47:15.629Z,94156.31
2022-11-28T03:48:30.030Z,94202.97
2022-11-28T03:49:50.481Z,94200.25
2022-11-28T03:51:03.679Z,94204.56
2022-11-28T03:52:06.349Z,94212.69
2022-11-28T03:53:09.515Z,94201.03
2022-11-28T03:54:15.467Z,94207.22
2022-11-28T03:55:19.250Z,94210.63
2022-11-28T03:56:23.086Z,94204.72
2022-11-28T03:57:40.309Z,94207.19
2022-11-28T03:58:43.846Z,94205.03
2022-11-28T03:59:46.213Z,94195.69
2022-11-28T04:00:49.575Z,94206.44
2022-11-28T04:01:47.496Z,94203.16
2022-11-28T04:02:56.523Z,94199.56
2022-11-28T04:04:16.559Z,94154.06
2022-11-28T04:05:24.966Z,94204.72
2022-11-28T04:06:36.662Z,94203.84
2022-11-28T04:08:07.393Z,94209.31
2022-11-28T04:09:14.324Z,94198.25
2022-11-28T04:10:29.165Z,94206.66
2022-11-28T04:11:31.428Z,94203.28
2022-11-28T04:12:46.128Z,94209.06
2022-11-28T04:13:51.944Z,94200.91
2022-11-28T04:15:03.777Z,94203.34
2022-11-28T04:16:19.463Z,94202.50
2022-11-28T04:17:24.239Z,94201.06
2022-11-28T04:18:38.122Z,94202.09
2022-11-28T04:19:41.999Z,94205.81
2022-11-28T04:20:47.865Z,94195.09
2022-11-28T04:22:05.208Z,94195.94
2022-11-28T04:23:09.498Z,94204.50
2022-11-28T04:24:12.705Z,94203.69
2022-11-28T04:25:13.924Z,94202.50
2022-11-28T04:26:33.553Z,94210.56
2022-11-28T04:27:40.088Z,94205.78
2022-11-28T04:28:38.326Z,94197.31
2022-11-28T04:29:43.466Z,94207.72
2022-11-28T04:30:42.936Z,94213.41
2022-11-28T04:31:42.799Z,94214.13
2022-11-28T04:32:46.639Z,94215.91
2022-11-28T04:33:48.098Z,94173.66
2022-11-28T04:34:49.563Z,94210.19
2022-11-28T04:35:51.522Z,94214.00
2022-11-28T04:36:49.353Z,94211.25
2022-11-28T04:37:48.830Z,94209.88
2022-11-28T04:38:54.354Z,94209.69
2022-11-28T04:39:52.461Z,94178.44
2022-11-28T04:40:55.989Z,94218.59
2022-11-28T04:41:55.960Z,94207.75
2022-11-28T04:43:00.683Z,94211.56
2022-11-28T04:44:09.677Z,94214.50
2022-11-28T04:45:13.036Z,94224.31
2022-11-28T04:46:14.925Z,94219.13
2022-11-28T04:47:11.905Z,94223.69
2022-11-28T04:48:08.661Z,94217.53
2022-11-28T04:49:05.403Z,94214.50
2022-11-28T04:50:02.122Z,94212.44
2022-11-28T04:51:12.315Z,94219.03
2022-11-28T04:52:20.242Z,94217.59
2022-11-28T04:53:22.531Z,94214.66
2022-11-28T04:54:26.771Z,94233.06
2022-11-28T04:55:39.310Z,94219.66
2022-11-28T04:56:47.217Z,94216.69
2022-11-28T04:57:57.053Z,94225.47
2022-11-28T04:58:54.133Z,94187.03
2022-11-28T04:59:51.953Z,94228.94
2022-11-28T05:00:52.508Z,94222.94
2022-11-28T05:01:50.270Z,94230.22
2022-11-28T05:02:51.410Z,94226.88
2022-11-28T05:03:48.652Z,94230.41
2022-11-28T05:04:45.610Z,94226.22
2022-11-28T05:05:51.201Z,94235.44
2022-11-28T05:06:48.088Z,94228.44
2022-11-28T05:07:44.789Z,94229.38
2022-11-28T05:08:42.290Z,94224.34
2022-11-28T05:09:39.662Z,94208.81
2022-11-28T05:10:36.510Z,94236.44
2022-11-28T05:11:33.202Z,94184.06
2022-11-28T05:12:30.386Z,94230.22
2022-11-28T05:13:27.063Z,94228.88
2022-11-28T05:14:23.866Z,94223.47
2022-11-28T05:15:20.454Z,94229.66
2022-11-28T05:16:17.510Z,94232.72
2022-11-28T05:17:14.238Z,94152.88
2022-11-28T05:18:10.894Z,94226.50
2022-11-28T05:19:07.534Z,94229.22
2022-11-28T05:20:06.417Z,94236.06
2022-11-28T05:21:03.065Z,94227.16
2022-11-28T05:21:59.724Z,94230.56
2022-11-28T05:22:56.312Z,94234.47
2022-11-28T05:23:52.854Z,94232.50
2022-11-28T05:24:49.454Z,94227.94
2022-11-28T05:25:46.085Z,94230.34
2022-11-28T05:26:43.319Z,94221.41
2022-11-28T05:27:40.055Z,94230.59
2022-11-28T05:28:36.758Z,94235.31
2022-11-28T05:29:33.695Z,94203.91
2022-11-28T05:30:30.304Z,94187.38
2022-11-28T05:31:26.968Z,94190.41
2022-11-28T05:32:23.585Z,94232.06
2022-11-28T05:33:20.175Z,94200.34
2022-11-28T05:34:16.784Z,94227.69
2022-11-28T05:35:13.706Z,94226.31
2022-11-28T05:36:13.412Z,94183.06
2022-11-28T05:37:10.216Z,94221.66
2022-11-28T05:38:12.120Z,94228.47
2022-11-28T05:39:10.170Z,94227.81
2022-11-28T05:40:07.580Z,94227.69
2022-11-28T05:41:04.407Z,94236.72
2022-11-28T05:42:01.010Z,94228.94
2022-11-28T05:42:57.622Z,94228.81
2022-11-28T05:43:56.336Z,94222.63
2022-11-28T05:44:53.078Z,94225.75
2022-11-28T05:45:49.702Z,94221.72
2022-11-28T05:46:46.558Z,94230.66
2022-11-28T05:47:43.115Z,94202.66
2022-11-28T05:48:39.783Z,94222.06
2022-11-28T05:49:36.463Z,94178.88
2022-11-28T05:50:38.495Z,94229.63
2022-11-28T05:51:36.427Z,94189.63
2022-11-28T05:52:33.066Z,94221.56
2022-11-28T05:53:29.774Z,94223.50
2022-11-28T05:54:26.605Z,94218.84
2022-11-28T05:55:23.280Z,94220.22
2022-11-28T05:56:23.102Z,94207.84
2022-11-28T05:57:19.751Z,94226.72
2022-11-28T05:58:16.338Z,94214.38
2022-11-28T05:59:13.997Z,94177.00
2022-11-28T06:00:11.213Z,94161.25
2022-11-28T06:01:15.714Z,94214.50
2022-11-28T06:02:12.448Z,94213.91
2022-11-28T06:03:09.170Z,94168.22
2022-11-28T06:04:05.762Z,94215.03
2022-11-28T06:05:20.969Z,94214.91
2022-11-28T06:06:22.420Z,94181.47
2022-11-28T06:07:19.993Z,94216.25
2022-11-28T06:08:16.699Z,94211.81
2022-11-28T06:09:14.103Z,94213.84
2022-11-28T06:10:10.930Z,94168.66
2022-11-28T06:11:07.651Z,94195.09
2022-11-28T06:12:04.781Z,94214.50
2022-11-28T06:13:03.024Z,94221.72
2022-11-28T06:14:00.115Z,94215.91
2022-11-28T06:14:56.695Z,94210.72
2022-11-28T06:15:53.379Z,94218.31
2022-11-28T06:16:50.092Z,94187.00
2022-11-28T06:17:46.728Z,94214.66
2022-11-28T06:18:43.861Z,94213.41
2022-11-28T06:19:40.683Z,94213.38
2022-11-28T06:20:37.513Z,94215.97
2022-11-28T06:21:34.173Z,94217.03
2022-11-28T06:22:30.894Z,94218.53
2022-11-28T06:23:27.544Z,94220.13
2022-11-28T06:24:24.144Z,94219.19
2022-11-28T06:25:20.767Z,94213.75
2022-11-28T06:26:21.189Z,94208.19
2022-11-28T06:27:17.895Z,94152.97
2022-11-28T06:28:14.449Z,94158.59
2022-11-28T06:29:11.035Z,94215.66
2022-11-28T06:30:08.151Z,94221.91
2022-11-28T06:31:05.581Z,94224.28
2022-11-28T06:32:02.258Z,94178.25
2022-11-28T06:32:58.906Z,94213.22
2022-11-28T06:33:56.165Z,94204.25
2022-11-28T06:34:52.734Z,94216.50
2022-11-28T06:35:49.332Z,94219.50
2022-11-28T06:36:46.042Z,94215.09
2022-11-28T06:37:42.738Z,94217.44
2022-11-28T06:38:39.569Z,94220.13
2022-11-28T06:39:36.754Z,94159.94
2022-11-28T06:40:33.368Z,94167.50
2022-11-28T06:41:29.950Z,94218.50
2022-11-28T06:42:26.609Z,94218.16
2022-11-28T06:43:23.192Z,94225.75
2022-11-28T06:44:19.761Z,94218.44
2022-11-28T06:45:16.545Z,94230.91
2022-11-28T06:46:18.999Z,94223.19
2022-11-28T06:47:15.566Z,94226.22
2022-11-28T06:48:12.133Z,94227.59
2022-11-28T06:49:11.687Z,94225.13
2022-11-28T06:50:09.859Z,94226.38
2022-11-28T06:51:07.355Z,94223.50
2022-11-28T06:52:04.061Z,94225.59
2022-11-28T06:53:00.665Z,94224.81
2022-11-28T06:53:57.315Z,94155.28
2022-11-28T06:54:53.945Z,94216.97
2022-11-28T06:55:50.549Z,94213.84
2022-11-28T06:56:47.126Z,94227.00
2022-11-28T06:57:43.890Z,94212.06
2022-11-28T06:58:41.374Z,94215.03
2022-11-28T06:59:38.123Z,94220.06
2022-11-28T07:00:35.372Z,94168.28
2022-11-28T07:01:32.609Z,94219.50
2022-11-28T07:02:29.307Z,94194.94
2022-11-28T07:03:26.005Z,94216.56
2022-11-28T07:04:22.625Z,94225.97
2022-11-28T07:05:19.506Z,94222.13
2022-11-28T07:06:19.311Z,94207.19
2022-11-28T07:07:16.808Z,94230.59
2022-11-28T07:08:13.797Z,94224.09
2022-11-28T07:09:10.704Z,94214.06
2022-11-28T07:10:07.904Z,94217.31
2022-11-28T07:11:15.001Z,94192.50
2022-11-28T07:12:11.600Z,94232.44
2022-11-28T07:13:09.334Z,94192.53
2022-11-28T07:14:06.083Z,94217.19
2022-11-28T07:15:02.802Z,94221.81
2022-11-28T07:15:59.519Z,94221.09
2022-11-28T07:16:56.171Z,94221.78
2022-11-28T07:17:53.351Z,94212.56
2022-11-28T07:18:50.732Z,94183.50
2022-11-28T07:19:53.501Z,94208.91
2022-11-28T07:20:51.534Z,94219.06
2022-11-28T07:21:48.904Z,94219.81
2022-11-28T07:22:47.774Z,94164.66
2022-11-28T07:23:45.137Z,94135.41
2022-11-28T07:24:41.708Z,94217.56
2022-11-28T07:25:38.378Z,94215.75
2022-11-28T07:26:38.130Z,94175.03
2022-11-28T07:27:34.892Z,94217.00
2022-11-28T07:28:32.723Z,94198.59
2022-11-28T07:29:35.970Z,94212.28
2022-11-28T07:30:32.764Z,94188.91
2022-11-28T07:31:32.399Z,94210.31
2022-11-28T07:32:29.277Z,94212.44
2022-11-28T07:33:25.912Z,94197.78
2022-11-28T07:34:22.577Z,94188.06
2022-11-28T07:35:19.281Z,94211.66
2022-11-28T07:36:19.074Z,94209.03
2022-11-28T07:37:16.176Z,94132.53
2022-11-28T07:38:12.750Z,94193.91
2022-11-28T07:39:13.716Z,94194.53
2022-11-28T07:40:10.642Z,94161.56
2022-11-28T07:41:11.143Z,94212.81
2022-11-28T07:42:07.744Z,94215.69
2022-11-28T07:43:04.374Z,94210.63
2022-11-28T07:44:03.155Z,94210.06
2022-11-28T07:44:59.892Z,94208.06
2022-11-28T07:46:00.932Z,94177.28
2022-11-28T07:46:58.299Z,94203.53
2022-11-28T07:47:54.998Z,94193.97
2022-11-28T07:48:51.798Z,94167.47
2022-11-28T07:49:48.326Z,94203.63
2022-11-28T07:50:44.947Z,94191.09
2022-11-28T07:51:42.342Z,94205.00
2022-11-28T07:52:39.069Z,94205.09
2022-11-28T07:53:36.633Z,94199.09
2022-11-28T07:54:33.190Z,94199.03
2022-11-28T07:55:29.807Z,94207.13
2022-11-28T07:56:44.247Z,94208.13
2022-11-28T07:57:46.244Z,94154.91
2022-11-28T07:58:45.332Z,94200.53
2022-11-28T07:59:42.177Z,94196.28
2022-11-28T08:00:39.244Z,94113.41
2022-11-28T08:01:36.680Z,94191.75
2022-11-28T08:02:33.469Z,94199.09
2022-11-28T08:03:30.119Z,94133.53
2022-11-28T08:04:26.862Z,94192.63
2022-11-28T08:05:23.567Z,94194.91
2022-11-28T08:06:23.318Z,94191.75
2022-11-28T08:07:20.032Z,94202.75
2022-11-28T08:08:17.591Z,94195.91
2022-11-28T08:09:14.195Z,94191.66
2022-11-28T08:10:11.004Z,94198.81
2022-11-28T08:11:09.190Z,94158.16
2022-11-28T08:13:07.947Z,94195.88
2022-11-28T08:14:05.507Z,94208.06
2022-11-28T08:15:02.105Z,94195.28
2022-11-28T08:15:58.853Z,94199.03
2022-11-28T08:16:55.530Z,94194.19
2022-11-28T08:17:52.290Z,94185.84
2022-11-28T08:18:50.243Z,94186.16
2022-11-28T08:19:46.833Z,94158.44
2022-11-28T08:20:43.408Z,94188.69
2022-11-28T08:21:40.025Z,94188.78
2022-11-28T08:22:36.625Z,94193.59
2022-11-28T08:23:34.685Z,94181.44
2022-11-28T08:24:31.368Z,94190.41
2022-11-28T08:25:28.085Z,94158.81
2022-11-28T08:26:30.369Z,94195.41
2022-11-28T08:27:27.757Z,94193.16
2022-11-28T08:28:24.997Z,94191.19
2022-11-28T08:29:21.710Z,94194.03
2022-11-28T08:30:18.438Z,94187.41
2022-11-28T08:31:24.424Z,94136.03
2022-11-28T08:32:21.161Z,94195.75
2022-11-28T08:33:17.743Z,94189.47
2022-11-28T08:34:14.661Z,94192.56
2022-11-28T08:35:11.241Z,94195.16
2022-11-28T08:36:09.783Z,94195.97
2022-11-28T08:37:06.404Z,94207.78
2022-11-28T08:38:03.156Z,94191.75
2022-11-28T08:39:22.764Z,94189.81
2022-11-28T08:40:17.859Z,94197.56
2022-11-28T08:41:18.718Z,94203.28
2022-11-28T08:42:15.438Z,94181.16
2022-11-28T08:43:12.072Z,94145.41
2022-11-28T08:44:08.699Z,94175.19
2022-11-28T08:45:06.564Z,94184.50
2022-11-28T08:46:04.188Z,94137.25
2022-11-28T08:47:00.916Z,94187.09
2022-11-28T08:47:58.980Z,94170.78
2022-11-28T08:48:55.572Z,94172.00
2022-11-28T08:49:52.283Z,94171.44
2022-11-28T08:50:49.684Z,94160.31
2022-11-28T08:51:46.554Z,94162.31
2022-11-28T08:52:43.196Z,94180.47
2022-11-28T08:53:40.402Z,94174.19
2022-11-28T08:54:37.247Z,94176.25
2022-11-28T08:55:35.579Z,94136.16
2022-11-28T08:56:36.019Z,94178.59
2022-11-28T08:57:32.649Z,94174.41
2022-11-28T08:58:29.394Z,94175.50
2022-11-28T08:59:25.962Z,94171.88
2022-11-28T09:00:22.630Z,94151.06
2022-11-28T09:01:22.069Z,94156.78
2022-11-28T09:02:24.475Z,94162.09
2022-11-28T09:03:22.559Z,94167.38
2022-11-28T09:04:19.516Z,94156.09
2022-11-28T09:05:16.115Z,94143.72
2022-11-28T09:06:13.286Z,94153.56
2022-11-28T09:07:09.868Z,94145.47
2022-11-28T09:08:10.208Z,94154.84
2022-11-28T09:09:09.229Z,94140.78
2022-11-28T09:10:06.567Z,94145.16
2022-11-28T09:11:03.396Z,94127.88
2022-11-28T09:12:00.063Z,94142.88
2022-11-28T09:12:56.736Z,94087.00
2022-11-28T09:13:53.368Z,94114.16
2022-11-28T09:14:50.001Z,94132.94
2022-11-28T09:15:50.065Z,94136.25
2022-11-28T09:16:50.379Z,94138.75
2022-11-28T09:17:47.236Z,94126.75
2022-11-28T09:18:43.938Z,94093.09
2022-11-28T09:19:40.977Z,94131.72
2022-11-28T09:20:37.899Z,94128.50
2022-11-28T09:21:34.946Z,94128.38
2022-11-28T09:22:33.681Z,94123.28
2022-11-28T09:23:30.485Z,94128.06
2022-11-28T09:24:27.126Z,94132.75
2022-11-28T09:25:23.918Z,94124.63
2022-11-28T09:26:22.721Z,94103.91
2022-11-28T09:27:19.302Z,94124.44
2022-11-28T09:28:16.401Z,94128.97
2022-11-28T09:29:13.073Z,94123.28
2022-11-28T09:30:10.053Z,94130.22
2022-11-28T09:31:07.786Z,94098.81
2022-11-28T09:32:04.836Z,94118.47
2022-11-28T09:33:01.647Z,94094.34
2022-11-28T09:33:58.323Z,94116.53
2022-11-28T09:34:54.905Z,94116.03
2022-11-28T09:35:51.489Z,94090.03
2022-11-28T09:36:50.195Z,94115.94
2022-11-28T09:37:47.111Z,94120.72
2022-11-28T09:38:44.177Z,94116.69
2022-11-28T09:40:04.720Z,94117.03
2022-11-28T09:40:57.676Z,94069.44
2022-11-28T09:42:27.215Z,94122.00
2022-11-28T09:43:34.927Z,94093.66
2022-11-28T09:44:43.134Z,94098.25
2022-11-28T09:45:40.307Z,94108.34
2022-11-28T09:46:38.897Z,94114.84
2022-11-28T09:47:37.638Z,94103.09
2022-11-28T09:48:38.805Z,94066.78
2022-11-28T09:49:44.839Z,94091.38
2022-11-28T09:50:42.911Z,94102.22
2022-11-28T09:51:54.610Z,94103.63
2022-11-28T09:53:03.699Z,94097.47
2022-11-28T09:54:12.609Z,94091.28
2022-11-28T09:55:12.345Z,94091.25
2022-11-28T09:56:16.793Z,94095.53
2022-11-28T09:57:34.981Z,94071.28
2022-11-28T09:58:53.195Z,94093.50
2022-11-28T09:59:49.780Z,94091.25
2022-11-28T10:00:55.373Z,94099.81
2022-11-28T10:02:13.786Z,94101.63
2022-11-28T10:03:36.119Z,94101.72
2022-11-28T10:04:44.348Z,94096.81
2022-11-28T10:05:48.850Z,94101.84
2022-11-28T10:07:02.792Z,94096.94
2022-11-28T10:08:10.901Z,94095.00
2022-11-28T10:09:30.693Z,94075.56
2022-11-28T10:11:06.268Z,94103.09
2022-11-28T10:12:24.168Z,94094.63
2022-11-28T10:13:46.993Z,94077.34
2022-11-28T10:15:40.274Z,94098.81
2022-11-28T10:16:55.107Z,94101.19
2022-11-28T10:18:00.962Z,94101.03
2022-11-28T10:19:03.958Z,94097.94
2022-11-28T10:20:12.228Z,94102.19
2022-11-28T10:21:42.376Z,94022.31
2022-11-28T10:22:53.876Z,94086.63
2022-11-28T10:23:54.907Z,94099.94
2022-11-28T10:24:57.713Z,94093.94
2022-11-28T10:25:59.526Z,94087.19
2022-11-28T10:27:03.354Z,94084.66
2022-11-28T10:28:00.068Z,94081.50
2022-11-28T10:29:00.296Z,94048.94
2022-11-28T10:30:03.080Z,94074.56
2022-11-28T10:31:05.673Z,94081.91
2022-11-28T10:32:04.756Z,94073.56
2022-11-28T10:33:13.851Z,94072.34
2022-11-28T10:34:40.231Z,94078.22
2022-11-28T10:35:47.693Z,94072.66
2022-11-28T10:36:57.173Z,94009.50
2022-11-28T10:37:55.425Z,94064.34
2022-11-28T10:38:52.135Z,94061.22
2022-11-28T10:39:48.814Z,94073.06
2022-11-28T10:40:55.878Z,94061.41
2022-11-28T10:42:27.189Z,94062.09
2022-11-28T10:43:38.331Z,94043.03
2022-11-28T10:44:58.485Z,94004.28
2022-11-28T10:46:08.299Z,94055.50
2022-11-28T10:47:33.573Z,94063.91
2022-11-28T10:48:45.209Z,94050.56
2022-11-28T10:50:01.283Z,94060.44
2022-11-28T10:51:26.451Z,94054.66
2022-11-28T10:52:26.137Z,94048.50
2022-11-28T10:53:51.932Z,94059.72
2022-11-28T10:54:57.480Z,94061.66
2022-11-28T10:56:11.085Z,94059.75
2022-11-28T10:57:26.524Z,94052.50
2022-11-28T10:58:59.493Z,94060.38
2022-11-28T11:00:13.121Z,94051.00
2022-11-28T11:01:10.598Z,94052.06
2022-11-28T11:02:41.212Z,94051.97
2022-11-28T11:03:39.577Z,94048.44
2022-11-28T11:04:38.560Z,94053.34
2022-11-28T11:05:36.937Z,94042.41
2022-11-28T11:06:41.863Z,94054.03
2022-11-28T11:07:56.405Z,94056.63
2022-11-28T11:08:53.406Z,94032.97
2022-11-28T11:09:50.162Z,94045.88
2022-11-28T11:11:02.369Z,94039.44
2022-11-28T11:12:01.071Z,93999.22
2022-11-28T11:12:58.977Z,94051.09
2022-11-28T11:14:02.720Z,94052.75
2022-11-28T11:14:59.458Z,94048.13
2022-11-28T11:16:11.648Z,94044.56
2022-11-28T11:17:35.880Z,94035.91
2022-11-28T11:18:35.182Z,94048.81
2022-11-28T11:19:38.540Z,94048.63
2022-11-28T11:20:40.320Z,94041.72
2022-11-28T11:21:36.997Z,94049.59
2022-11-28T11:22:33.740Z,94054.53
2022-11-28T11:23:33.986Z,94044.31
2022-11-28T11:24:34.746Z,94023.50
2022-11-28T11:25:34.734Z,94034.84
2022-11-28T11:26:37.390Z,94040.00
2022-11-28T11:27:36.085Z,94040.22
2022-11-28T11:28:47.077Z,94044.47
2022-11-28T11:29:45.077Z,94023.91
2022-11-28T11:30:42.947Z,94038.38
2022-11-28T11:31:44.455Z,94044.00
2022-11-28T11:32:41.137Z,94030.59
2022-11-28T11:33:38.241Z,94036.47
2022-11-28T11:34:44.274Z,94038.09
2022-11-28T11:35:48.119Z,94036.16
2022-11-28T11:36:44.936Z,94038.09
2022-11-28T11:37:41.542Z,94040.13
2022-11-28T11:38:39.272Z,94035.31
2022-11-28T11:39:50.788Z,94027.50
2022-11-28T11:40:51.023Z,94029.25
2022-11-28T11:41:59.697Z,94030.00
2022-11-28T11:42:58.752Z,94023.28
2022-11-28T11:43:56.817Z,94031.94
2022-11-28T11:44:53.900Z,94012.22
2022-11-28T11:46:14.152Z,94032.59
2022-11-28T11:47:11.080Z,94025.13
2022-11-28T11:48:11.831Z,94012.41
2022-11-28T11:49:28.583Z,93990.09
2022-11-28T11:50:28.065Z,93997.00
2022-11-28T11:51:36.486Z,94018.59
2022-11-28T11:52:35.864Z,94008.38
2022-11-28T11:53:32.453Z,93962.88
2022-11-28T11:54:29.254Z,94006.13
2022-11-28T11:55:28.785Z,94015.00
2022-11-28T11:56:25.979Z,94014.81
2022-11-28T11:57:33.083Z,94007.03
2022-11-28T11:58:46.802Z,94013.72
2022-11-28T11:59:55.108Z,93978.13
2022-11-28T12:00:55.939Z,93947.00
2022-11-28T12:01:58.879Z,94010.72
2022-11-28T12:03:01.977Z,94007.31
2022-11-28T12:04:17.749Z,94003.41
2022-11-28T12:05:18.714Z,94002.78